Time;durP1;ratioP1;P1;durP2;ratioP2;P2;SDS_P1;SDS_P2;PMS_P1;PMS_P2;Temp;Humidity;BMP_temperature;BMP_pressure;BME280_temperature;BME280_humidity;BME280_pressure;Samples;Min_cycle;Max_cycle;Signal;HPM_P1;HPM_P2
2023/07/08 00:01:05;;;;;;;10.20;5.80;;;;;;;;;;5031230;28;20032;-58
2023/07/08 00:03:34;;;;;;;9.98;5.28;;;;;;;;;;5025872;28;20048;-58
2023/07/08 00:06:02;;;;;;;11.20;5.40;;;;;;;;;;5033179;28;20135;-58
2023/07/08 00:08:30;;;;;;;10.43;5.40;;;;;;;;;;5020495;28;20051;-58
2023/07/08 00:10:58;;;;;;;11.07;5.27;;;;;;;;;;5023166;28;20513;-58
2023/07/08 00:13:28;;;;;;;10.60;5.10;;;;;;;;;;5024387;28;20102;-58
2023/07/08 00:15:57;;;;;;;11.88;5.60;;;;;;;;;;5027962;28;20138;-58
2023/07/08 00:18:24;;;;;;;11.90;5.60;;;;;;;;;;5029104;28;20033;-58
2023/07/08 00:20:54;;;;;;;10.63;5.32;;;;;;;;;;5024360;28;20044;-59
2023/07/08 00:23:22;;;;;;;10.30;5.30;;;;;;;;;;5021575;28;20538;-58
2023/07/08 00:25:50;;;;;;;10.55;5.15;;;;;;;;;;5029645;28;20494;-56
2023/07/08 00:28:19;;;;;;;14.50;5.57;;;;;;;;;;5013390;28;20150;-58
2023/07/08 00:30:47;;;;;;;11.15;5.57;;;;;;;;;;5022609;28;20597;-57
2023/07/08 00:33:16;;;;;;;15.38;6.47;;;;;;;;;;5023308;28;20041;-59
2023/07/08 00:35:45;;;;;;;10.10;5.73;;;;;;;;;;5021454;28;20045;-58
2023/07/08 00:38:15;;;;;;;14.45;5.25;;;;;;;;;;5014321;28;20090;-58
2023/07/08 00:40:52;;;;;;;10.85;5.68;;;;;;;;;;5019757;28;20032;-59
2023/07/08 00:43:23;;;;;;;11.98;5.82;;;;;;;;;;5031394;28;20045;-59
2023/07/08 00:45:52;;;;;;;9.88;5.22;;;;;;;;;;5023420;28;20132;-58
2023/07/08 00:48:35;;;;;;;11.40;5.60;;;;;;;;;;5031455;28;20036;-58
2023/07/08 00:51:03;;;;;;;13.52;5.20;;;;;;;;;;5037280;28;20064;-58
2023/07/08 00:53:33;;;;;;;11.70;5.88;;;;;;;;;;5021406;28;20128;-58
2023/07/08 00:56:03;;;;;;;9.88;4.97;;;;;;;;;;5031524;28;20056;-59
2023/07/08 00:58:34;;;;;;;13.57;6.05;;;;;;;;;;5028990;28;20045;-59
2023/07/08 01:01:04;;;;;;;10.63;5.70;;;;;;;;;;5031011;28;20043;-58
2023/07/08 01:03:32;;;;;;;11.43;5.57;;;;;;;;;;5020095;28;20041;-58
2023/07/08 01:06:00;;;;;;;11.05;5.20;;;;;;;;;;5029341;28;20499;-59
2023/07/08 01:08:32;;;;;;;11.85;5.72;;;;;;;;;;5019862;28;20479;-59
2023/07/08 01:11:03;;;;;;;14.23;5.55;;;;;;;;;;5021670;28;20041;-59
2023/07/08 01:13:33;;;;;;;12.50;5.53;;;;;;;;;;5026224;28;20045;-60
2023/07/08 01:16:01;;;;;;;11.57;6.03;;;;;;;;;;4999007;28;20441;-59
2023/07/08 01:18:30;;;;;;;12.30;5.60;;;;;;;;;;5027454;28;20047;-59
2023/07/08 01:21:01;;;;;;;8.45;4.78;;;;;;;;;;5037342;28;20037;-59
2023/07/08 01:23:31;;;;;;;10.85;5.25;;;;;;;;;;5005860;28;20033;-59
2023/07/08 01:26:00;;;;;;;9.90;5.10;;;;;;;;;;5034551;28;20055;-59
2023/07/08 01:28:30;;;;;;;9.65;4.80;;;;;;;;;;5016649;28;20418;-59
2023/07/08 01:30:58;;;;;;;11.32;5.10;;;;;;;;;;5029681;28;20036;-58
2023/07/08 01:33:28;;;;;;;10.93;4.15;;;;;;;;;;5033050;28;20128;-59
2023/07/08 01:35:55;;;;;;;10.27;5.20;;;;;;;;;;5018960;28;20040;-59
2023/07/08 01:38:24;;;;;;;9.23;4.80;;;;;;;;;;5042667;28;20406;-59
2023/07/08 01:40:55;;;;;;;10.30;4.75;;;;;;;;;;5021694;28;20033;-59
2023/07/08 01:43:23;;;;;;;10.40;5.28;;;;;;;;;;5019180;28;20072;-59
2023/07/08 01:45:52;;;;;;;12.90;4.75;;;;;;;;;;5034629;28;20588;-58
2023/07/08 01:48:21;;;;;;;10.40;4.80;;;;;;;;;;5023621;28;20033;-59
2023/07/08 01:50:51;;;;;;;11.37;5.00;;;;;;;;;;5035933;28;20147;-59
2023/07/08 01:53:22;;;;;;;9.45;4.93;;;;;;;;;;5037672;28;20515;-59
2023/07/08 01:55:50;;;;;;;8.82;4.82;;;;;;;;;;5031547;28;20040;-57
2023/07/08 01:58:19;;;;;;;10.55;4.28;;;;;;;;;;5020380;28;20515;-59
2023/07/08 02:00:48;;;;;;;12.15;5.20;;;;;;;;;;5044698;28;20040;-59
2023/07/08 02:03:15;;;;;;;9.97;4.93;;;;;;;;;;5023483;28;20392;-59
2023/07/08 02:05:43;;;;;;;9.52;4.50;;;;;;;;;;5039185;28;20161;-58
2023/07/08 02:08:11;;;;;;;9.18;4.80;;;;;;;;;;5022490;28;20055;-59
2023/07/08 02:10:40;;;;;;;16.40;4.70;;;;;;;;;;5031143;28;20505;-58
2023/07/08 02:13:07;;;;;;;9.25;4.60;;;;;;;;;;5037289;28;20048;-59
2023/07/08 02:15:36;;;;;;;9.93;4.23;;;;;;;;;;5026194;28;20079;-59
2023/07/08 02:18:04;;;;;;;9.93;4.25;;;;;;;;;;5029861;28;20048;-59
2023/07/08 02:20:32;;;;;;;11.70;4.80;;;;;;;;;;5002842;28;20033;-58
2023/07/08 02:23:00;;;;;;;11.60;4.65;;;;;;;;;;5034016;28;20063;-59
2023/07/08 02:25:28;;;;;;;8.48;4.50;;;;;;;;;;5028983;28;20769;-59
2023/07/08 02:27:57;;;;;;;8.67;4.20;;;;;;;;;;5016392;28;20049;-59
2023/07/08 02:30:24;;;;;;;12.27;4.85;;;;;;;;;;5022359;28;20032;-59
2023/07/08 02:32:57;;;;;;;10.93;5.70;;;;;;;;;;5024561;28;20471;-59
2023/07/08 02:35:26;;;;;;;9.38;5.25;;;;;;;;;;5023998;28;20087;-60
2023/07/08 02:37:55;;;;;;;10.13;4.80;;;;;;;;;;5023181;28;20502;-59
2023/07/08 02:40:23;;;;;;;9.23;4.60;;;;;;;;;;5030577;28;20402;-59
2023/07/08 02:42:51;;;;;;;10.05;4.30;;;;;;;;;;5019436;28;20040;-59
2023/07/08 02:45:19;;;;;;;9.25;4.07;;;;;;;;;;5016373;28;20040;-59
2023/07/08 02:47:46;;;;;;;8.75;4.30;;;;;;;;;;5034091;28;20044;-58
2023/07/08 02:50:18;;;;;;;9.38;4.30;;;;;;;;;;5038471;28;20086;-58
2023/07/08 02:52:47;;;;;;;11.17;4.63;;;;;;;;;;5030772;28;20115;-58
2023/07/08 02:55:14;;;;;;;9.60;4.22;;;;;;;;;;5022324;28;22026;-59
2023/07/08 02:57:42;;;;;;;9.57;4.45;;;;;;;;;;5034036;28;20344;-58
2023/07/08 03:00:10;;;;;;;9.40;4.43;;;;;;;;;;5005637;28;20761;-56
2023/07/08 03:02:38;;;;;;;9.23;4.65;;;;;;;;;;5021665;28;20055;-59
2023/07/08 03:05:06;;;;;;;9.50;4.63;;;;;;;;;;5019778;28;20217;-59
2023/07/08 03:07:35;;;;;;;8.95;4.50;;;;;;;;;;5038430;28;20045;-58
2023/07/08 03:10:04;;;;;;;10.68;4.82;;;;;;;;;;5024046;28;20822;-59
2023/07/08 03:12:32;;;;;;;10.30;4.95;;;;;;;;;;5030576;28;20135;-59
2023/07/08 03:15:00;;;;;;;12.32;5.25;;;;;;;;;;5023964;28;20037;-59
2023/07/08 03:17:28;;;;;;;9.20;4.60;;;;;;;;;;5041183;28;20059;-59
2023/07/08 03:19:56;;;;;;;9.90;4.95;;;;;;;;;;5031124;28;20123;-59
2023/07/08 03:22:23;;;;;;;12.65;5.53;;;;;;;;;;5015359;28;20327;-59
2023/07/08 03:25:04;;;;;;;11.27;4.50;;;;;;;;;;5030917;28;20041;-59
2023/07/08 03:27:34;;;;;;;11.07;5.05;;;;;;;;;;5023450;28;20048;-59
2023/07/08 03:30:04;;;;;;;10.53;4.70;;;;;;;;;;5032649;28;20029;-58
2023/07/08 03:32:31;;;;;;;9.95;4.78;;;;;;;;;;5023990;28;20041;-58
2023/07/08 03:35:02;;;;;;;10.45;5.13;;;;;;;;;;5032737;28;20040;-58
2023/07/08 03:37:30;;;;;;;10.95;4.43;;;;;;;;;;5031321;28;20045;-58
2023/07/08 03:39:59;;;;;;;10.02;4.50;;;;;;;;;;5008538;28;20037;-59
2023/07/08 03:42:27;;;;;;;8.87;4.30;;;;;;;;;;5029690;28;20413;-58
2023/07/08 03:44:54;;;;;;;12.13;4.60;;;;;;;;;;5037550;28;20514;-58
2023/07/08 03:47:23;;;;;;;9.85;4.53;;;;;;;;;;5028609;28;20041;-58
2023/07/08 03:49:50;;;;;;;10.52;4.75;;;;;;;;;;5047810;28;20040;-59
2023/07/08 03:52:19;;;;;;;11.40;5.25;;;;;;;;;;5002825;28;20080;-58
2023/07/08 03:54:46;;;;;;;11.77;4.73;;;;;;;;;;5026211;28;20556;-58
2023/07/08 03:57:15;;;;;;;12.35;5.00;;;;;;;;;;5042370;28;20119;-59
2023/07/08 03:59:43;;;;;;;11.38;4.25;;;;;;;;;;5034072;28;20131;-59
2023/07/08 04:02:15;;;;;;;11.77;4.75;;;;;;;;;;5026970;28;20037;-59
2023/07/08 04:04:43;;;;;;;9.85;4.65;;;;;;;;;;5040794;28;20542;-58
2023/07/08 04:07:12;;;;;;;12.20;4.80;;;;;;;;;;5022126;28;20052;-58
2023/07/08 04:09:40;;;;;;;10.10;4.57;;;;;;;;;;5042310;28;20526;-58
2023/07/08 04:12:09;;;;;;;9.70;4.60;;;;;;;;;;5024001;28;20036;-58
2023/07/08 04:14:42;;;;;;;17.20;5.28;;;;;;;;;;5042003;28;20044;-59
2023/07/08 04:17:11;;;;;;;11.70;5.00;;;;;;;;;;5019011;28;20363;-56
2023/07/08 04:19:39;;;;;;;10.60;4.63;;;;;;;;;;5024882;28;20059;-59
2023/07/08 04:22:07;;;;;;;12.43;4.38;;;;;;;;;;5022310;28;20494;-59
2023/07/08 04:24:34;;;;;;;10.35;5.13;;;;;;;;;;5023426;28;20041;-58
2023/07/08 04:27:02;;;;;;;10.48;4.70;;;;;;;;;;5021309;28;20033;-59
2023/07/08 04:29:30;;;;;;;10.02;4.50;;;;;;;;;;5031171;28;20051;-57
2023/07/08 04:31:59;;;;;;;8.57;4.67;;;;;;;;;;5036015;28;20044;-58
2023/07/08 04:34:28;;;;;;;10.63;4.72;;;;;;;;;;5023933;28;20040;-58
2023/07/08 04:36:56;;;;;;;8.55;4.60;;;;;;;;;;5023226;28;20037;-58
2023/07/08 04:39:24;;;;;;;9.82;3.92;;;;;;;;;;5027111;28;20404;-59
2023/07/08 04:41:51;;;;;;;11.50;4.30;;;;;;;;;;5028571;28;20056;-59
2023/07/08 04:44:19;;;;;;;10.40;4.40;;;;;;;;;;5026250;28;20052;-58
2023/07/08 04:46:48;;;;;;;11.68;4.15;;;;;;;;;;5019738;28;20531;-58
2023/07/08 04:49:31;;;;;;;8.93;4.07;;;;;;;;;;5020241;28;20055;-59
2023/07/08 04:51:59;;;;;;;9.48;4.60;;;;;;;;;;5027291;28;20044;-58
2023/07/08 04:54:27;;;;;;;10.05;4.55;;;;;;;;;;5014467;28;20080;-58
2023/07/08 04:56:55;;;;;;;11.50;4.47;;;;;;;;;;5032860;28;20064;-58
2023/07/08 04:59:24;;;;;;;10.02;4.40;;;;;;;;;;5024626;28;20068;-58
2023/07/08 05:01:53;;;;;;;8.20;3.85;;;;;;;;;;5033297;28;20045;-58
2023/07/08 05:04:22;;;;;;;8.75;4.15;;;;;;;;;;5010326;28;20314;-58
2023/07/08 05:06:51;;;;;;;13.00;4.47;;;;;;;;;;5031027;28;20052;-58
2023/07/08 05:09:22;;;;;;;9.57;4.07;;;;;;;;;;5026706;28;20036;-58
2023/07/08 05:11:49;;;;;;;11.10;4.45;;;;;;;;;;5035818;28;20049;-58
2023/07/08 05:14:17;;;;;;;8.45;4.15;;;;;;;;;;5019900;28;20123;-58
2023/07/08 05:16:45;;;;;;;11.25;4.32;;;;;;;;;;5035650;28;20032;-58
2023/07/08 05:19:13;;;;;;;10.32;4.43;;;;;;;;;;5023258;28;20048;-58
2023/07/08 05:21:42;;;;;;;12.23;4.40;;;;;;;;;;5031763;28;20043;-58
2023/07/08 05:24:12;;;;;;;12.55;5.00;;;;;;;;;;5033167;28;20110;-57
2023/07/08 05:26:40;;;;;;;12.00;4.65;;;;;;;;;;5010471;28;20048;-59
2023/07/08 05:29:08;;;;;;;11.20;5.00;;;;;;;;;;5029567;28;20430;-59
2023/07/08 05:31:35;;;;;;;10.50;4.47;;;;;;;;;;5028682;28;20033;-58
2023/07/08 05:34:06;;;;;;;14.27;4.13;;;;;;;;;;5015146;28;20076;-59
2023/07/08 05:36:34;;;;;;;16.00;5.53;;;;;;;;;;5027355;28;20044;-59
2023/07/08 05:39:02;;;;;;;10.88;4.95;;;;;;;;;;5036949;28;22419;-58
2023/07/08 05:41:30;;;;;;;10.60;4.93;;;;;;;;;;5032614;28;20533;-58
2023/07/08 05:43:58;;;;;;;9.63;5.00;;;;;;;;;;5022849;28;20033;-58
2023/07/08 05:46:26;;;;;;;9.50;4.63;;;;;;;;;;5025978;28;20562;-58
2023/07/08 05:48:54;;;;;;;10.73;5.15;;;;;;;;;;5024172;28;20102;-58
2023/07/08 05:51:22;;;;;;;14.18;4.90;;;;;;;;;;5035400;28;20033;-59
2023/07/08 05:53:49;;;;;;;11.02;4.30;;;;;;;;;;5037654;28;20041;-58
2023/07/08 05:56:17;;;;;;;9.38;4.85;;;;;;;;;;5011822;28;20033;-58
2023/07/08 05:58:46;;;;;;;11.50;4.80;;;;;;;;;;5055978;28;20040;-58
2023/07/08 06:01:14;;;;;;;12.02;4.85;;;;;;;;;;5016622;28;20278;-59
2023/07/08 06:03:41;;;;;;;11.45;5.22;;;;;;;;;;5028938;28;20623;-59
2023/07/08 06:06:09;;;;;;;10.32;4.40;;;;;;;;;;5024254;28;20132;-59
2023/07/08 06:08:37;;;;;;;12.23;4.45;;;;;;;;;;5039033;28;20048;-58
2023/07/08 06:11:05;;;;;;;9.67;4.83;;;;;;;;;;5019585;28;20047;-58
2023/07/08 06:13:33;;;;;;;10.02;4.68;;;;;;;;;;5034030;28;20066;-58
2023/07/08 06:16:02;;;;;;;10.90;4.78;;;;;;;;;;5025899;28;20558;-58
2023/07/08 06:18:30;;;;;;;10.63;4.78;;;;;;;;;;5028740;28;20110;-56
2023/07/08 06:20:58;;;;;;;12.88;5.13;;;;;;;;;;5034842;28;20048;-58
2023/07/08 06:23:26;;;;;;;10.50;4.50;;;;;;;;;;5015702;28;20041;-59
2023/07/08 06:25:54;;;;;;;11.32;4.65;;;;;;;;;;5032601;28;20048;-58
2023/07/08 06:28:23;;;;;;;9.52;3.95;;;;;;;;;;5034709;28;20053;-58
2023/07/08 06:30:51;;;;;;;9.30;4.28;;;;;;;;;;5012664;28;20045;-56
2023/07/08 06:33:20;;;;;;;9.15;3.90;;;;;;;;;;5029523;28;20029;-58
2023/07/08 06:35:48;;;;;;;9.93;3.70;;;;;;;;;;5019747;28;20044;-57
2023/07/08 06:38:16;;;;;;;13.05;3.95;;;;;;;;;;5033874;28;20037;-57
2023/07/08 06:40:44;;;;;;;10.43;3.88;;;;;;;;;;5026427;28;20571;-57
2023/07/08 06:43:12;;;;;;;13.93;4.47;;;;;;;;;;5027444;28;20099;-56
2023/07/08 06:45:40;;;;;;;10.27;4.20;;;;;;;;;;5005133;28;20538;-57
2023/07/08 06:48:08;;;;;;;9.37;3.43;;;;;;;;;;5038448;28;20047;-57
2023/07/08 06:50:38;;;;;;;13.35;4.43;;;;;;;;;;5023392;28;20103;-58
2023/07/08 06:53:07;;;;;;;13.27;4.13;;;;;;;;;;5024953;28;20052;-58
2023/07/08 06:55:35;;;;;;;11.07;4.25;;;;;;;;;;5025624;28;20632;-58
2023/07/08 06:58:03;;;;;;;9.27;4.43;;;;;;;;;;5035576;28;20041;-58
2023/07/08 07:00:31;;;;;;;10.53;4.20;;;;;;;;;;5020402;28;20124;-58
2023/07/08 07:02:59;;;;;;;8.40;3.45;;;;;;;;;;5044898;28;20541;-58
2023/07/08 07:05:27;;;;;;;11.05;3.40;;;;;;;;;;5025445;28;20074;-59
2023/07/08 07:07:56;;;;;;;9.77;3.75;;;;;;;;;;5028978;28;20501;-58
2023/07/08 07:10:24;;;;;;;9.43;3.92;;;;;;;;;;5027047;28;20036;-58
2023/07/08 07:12:52;;;;;;;8.20;3.70;;;;;;;;;;5024732;28;20135;-58
2023/07/08 07:15:20;;;;;;;9.63;4.18;;;;;;;;;;5032230;28;20263;-58
2023/07/08 07:17:48;;;;;;;10.85;3.63;;;;;;;;;;5032788;28;20579;-58
2023/07/08 07:20:16;;;;;;;10.85;4.25;;;;;;;;;;5035379;28;20564;-58
2023/07/08 07:22:44;;;;;;;10.88;3.90;;;;;;;;;;5015969;28;20495;-58
2023/07/08 07:25:13;;;;;;;8.63;3.30;;;;;;;;;;5025697;28;20045;-58
2023/07/08 07:27:41;;;;;;;9.05;3.30;;;;;;;;;;5029065;28;20044;-58
2023/07/08 07:30:12;;;;;;;10.23;3.97;;;;;;;;;;5040988;28;20052;-58
2023/07/08 07:32:40;;;;;;;10.50;4.03;;;;;;;;;;5023267;28;20068;-58
2023/07/08 07:35:12;;;;;;;6.70;3.40;;;;;;;;;;5026870;28;20366;-58
2023/07/08 07:37:40;;;;;;;7.93;3.30;;;;;;;;;;5044469;28;20047;-57
2023/07/08 07:40:12;;;;;;;11.57;3.95;;;;;;;;;;5025823;28;20055;-58
2023/07/08 07:42:41;;;;;;;10.30;3.97;;;;;;;;;;5055212;28;20539;-58
2023/07/08 07:45:10;;;;;;;7.53;3.42;;;;;;;;;;5026102;28;20076;-58
2023/07/08 07:47:39;;;;;;;9.38;3.92;;;;;;;;;;5036651;28;20128;-59
2023/07/08 07:50:09;;;;;;;8.20;3.50;;;;;;;;;;5024530;28;20040;-58
2023/07/08 07:52:37;;;;;;;9.10;3.40;;;;;;;;;;5020847;28;20320;-58
2023/07/08 07:55:05;;;;;;;7.05;3.22;;;;;;;;;;5020561;28;20059;-58
2023/07/08 07:57:34;;;;;;;11.18;3.40;;;;;;;;;;5033901;28;20044;-58
2023/07/08 08:00:04;;;;;;;8.25;3.28;;;;;;;;;;5022849;28;20045;-58
2023/07/08 08:02:31;;;;;;;9.20;2.80;;;;;;;;;;5025159;28;20101;-58
2023/07/08 08:04:59;;;;;;;8.57;3.40;;;;;;;;;;5042388;28;20051;-58
2023/07/08 08:07:27;;;;;;;11.32;3.33;;;;;;;;;;5019369;28;20384;-58
2023/07/08 08:09:55;;;;;;;9.65;3.03;;;;;;;;;;5031555;28;20056;-58
2023/07/08 08:12:24;;;;;;;9.35;3.28;;;;;;;;;;5024525;28;20573;-58
2023/07/08 08:14:52;;;;;;;11.20;3.20;;;;;;;;;;5035376;28;20063;-58
2023/07/08 08:17:22;;;;;;;7.28;2.80;;;;;;;;;;5018893;28;20048;-58
2023/07/08 08:19:49;;;;;;;9.40;3.10;;;;;;;;;;5037770;28;20037;-58
2023/07/08 08:22:17;;;;;;;7.93;2.88;;;;;;;;;;5025200;28;20047;-58
2023/07/08 08:24:45;;;;;;;9.38;3.15;;;;;;;;;;5016736;28;20640;-58
2023/07/08 08:27:12;;;;;;;9.43;3.33;;;;;;;;;;5048960;28;20045;-58
2023/07/08 08:29:40;;;;;;;7.75;2.75;;;;;;;;;;5013361;28;20143;-58
2023/07/08 08:32:10;;;;;;;10.23;3.65;;;;;;;;;;5036886;28;20152;-58
2023/07/08 08:34:39;;;;;;;12.90;3.83;;;;;;;;;;5008899;28;20045;-58
2023/07/08 08:37:09;;;;;;;9.98;3.67;;;;;;;;;;5031425;28;20040;-58
2023/07/08 08:39:36;;;;;;;9.03;3.20;;;;;;;;;;5020822;28;20036;-59
2023/07/08 08:42:05;;;;;;;10.55;3.80;;;;;;;;;;5038629;28;20042;-58
2023/07/08 08:44:34;;;;;;;8.88;2.78;;;;;;;;;;5033557;28;20044;-58
2023/07/08 08:47:06;;;;;;;8.27;2.95;;;;;;;;;;5035031;28;20033;-59
2023/07/08 08:49:42;;;;;;;7.60;3.33;;;;;;;;;;5026677;28;20248;-58
2023/07/08 08:52:10;;;;;;;7.10;2.63;;;;;;;;;;5023488;28;20044;-53
2023/07/08 08:54:39;;;;;;;6.82;2.05;;;;;;;;;;5015871;28;21019;-58
2023/07/08 08:57:12;;;;;;;6.68;2.70;;;;;;;;;;5034714;28;20056;-59
2023/07/08 08:59:43;;;;;;;9.95;3.15;;;;;;;;;;5020857;28;20041;-58
2023/07/08 09:02:25;;;;;;;8.85;2.58;;;;;;;;;;5032192;28;20495;-58
2023/07/08 09:04:54;;;;;;;10.47;3.10;;;;;;;;;;4679144;28;10000120;-58
2023/07/08 09:07:23;;;;;;;12.43;3.43;;;;;;;;;;5004086;28;20045;-58
2023/07/08 09:10:02;;;;;;;12.05;3.78;;;;;;;;;;5042950;28;20647;-55
2023/07/08 09:12:30;;;;;;;13.15;4.00;;;;;;;;;;5032520;28;20057;-58
2023/07/08 09:14:58;;;;;;;12.10;3.38;;;;;;;;;;5026856;28;20045;-57
2023/07/08 09:17:30;;;;;;;10.48;3.72;;;;;;;;;;5019261;28;20041;-58
2023/07/08 09:20:08;;;;;;;11.67;3.93;;;;;;;;;;5027535;28;20049;-58
2023/07/08 09:22:39;;;;;;;9.23;3.38;;;;;;;;;;5034184;28;20047;-58
2023/07/08 09:25:20;;;;;;;11.82;3.38;;;;;;;;;;5004006;28;20048;-58
2023/07/08 09:27:48;;;;;;;9.63;3.40;;;;;;;;;;5030594;28;20048;-56
2023/07/08 09:30:17;;;;;;;9.18;3.67;;;;;;;;;;5020192;28;20065;-58
2023/07/08 09:32:46;;;;;;;10.17;3.50;;;;;;;;;;5000267;28;20650;-58
2023/07/08 09:35:19;;;;;;;11.88;3.67;;;;;;;;;;4681852;28;9999666;-58
2023/07/08 09:37:48;;;;;;;13.40;3.27;;;;;;;;;;5030699;28;20040;-58
2023/07/08 09:40:17;;;;;;;11.20;3.13;;;;;;;;;;5020082;28;20041;-58
2023/07/08 09:42:47;;;;;;;12.93;3.85;;;;;;;;;;5030212;28;20041;-59
2023/07/08 09:45:17;;;;;;;13.15;3.83;;;;;;;;;;5020219;28;20036;-59
2023/07/08 09:47:46;;;;;;;11.00;3.67;;;;;;;;;;5030148;28;20041;-59
2023/07/08 09:50:17;;;;;;;12.03;3.43;;;;;;;;;;5036861;28;20139;-59
2023/07/08 09:52:48;;;;;;;10.30;3.53;;;;;;;;;;5030812;28;20090;-59
2023/07/08 09:55:16;;;;;;;11.82;3.50;;;;;;;;;;5029409;28;20091;-59
2023/07/08 09:57:44;;;;;;;12.40;3.28;;;;;;;;;;5029298;28;20055;-59
2023/07/08 10:00:15;;;;;;;8.40;3.10;;;;;;;;;;5035229;28;20131;-59
2023/07/08 10:02:44;;;;;;;11.10;3.00;;;;;;;;;;5022678;28;21131;-59
2023/07/08 10:05:14;;;;;;;12.23;3.63;;;;;;;;;;5043451;28;20045;-58
2023/07/08 10:07:42;;;;;;;9.45;3.90;;;;;;;;;;5026182;28;20366;-59
2023/07/08 10:10:14;;;;;;;10.65;3.40;;;;;;;;;;5041510;28;20052;-55
2023/07/08 10:12:46;;;;;;;10.02;3.70;;;;;;;;;;5024485;28;20537;-58
2023/07/08 10:15:25;;;;;;;13.07;3.70;;;;;;;;;;5037728;28;20036;-59
2023/07/08 10:17:54;;;;;;;15.60;3.72;;;;;;;;;;4680227;28;10000562;-58
2023/07/08 10:20:23;;;;;;;11.13;4.23;;;;;;;;;;5020376;28;20539;-59
2023/07/08 10:23:00;;;;;;;10.85;3.45;;;;;;;;;;5036583;28;20056;-55
2023/07/08 10:25:36;;;;;;;10.68;4.32;;;;;;;;;;5019202;28;20052;-58
2023/07/08 10:28:19;;;;;;;9.65;3.47;;;;;;;;;;5051258;28;20072;-59
2023/07/08 10:30:59;;;;;;;10.43;3.70;;;;;;;;;;5029147;28;20060;-59
2023/07/08 10:33:38;;;;;;;12.30;3.73;;;;;;;;;;5027679;28;20503;-59
2023/07/08 10:36:13;;;;;;;9.05;3.20;;;;;;;;;;5028596;28;20039;-59
2023/07/08 10:38:46;;;;;;;10.88;3.75;;;;;;;;;;5037039;28;20510;-61
2023/07/08 10:41:18;;;;;;;13.52;3.80;;;;;;;;;;5030094;28;20065;-59
2023/07/08 10:43:54;;;;;;;12.57;3.95;;;;;;;;;;5014553;28;20060;-59
2023/07/08 10:46:32;;;;;;;10.80;3.17;;;;;;;;;;5032695;28;20044;-59
2023/07/08 10:49:13;;;;;;;8.70;3.67;;;;;;;;;;5019255;28;20125;-58
2023/07/08 10:51:46;;;;;;;8.05;3.50;;;;;;;;;;5021800;28;20063;-58
2023/07/08 10:54:24;;;;;;;10.27;3.83;;;;;;;;;;5031934;28;20040;-58
2023/07/08 10:56:55;;;;;;;10.65;3.53;;;;;;;;;;5021328;28;20059;-58
2023/07/08 10:59:32;;;;;;;9.93;3.27;;;;;;;;;;5028466;28;20055;-58
2023/07/08 11:02:04;;;;;;;14.43;3.53;;;;;;;;;;5036318;28;20116;-58
2023/07/08 11:04:39;;;;;;;9.60;3.60;;;;;;;;;;5019584;28;20039;-57
2023/07/08 11:07:14;;;;;;;10.45;3.95;;;;;;;;;;5032880;28;20045;-58
2023/07/08 11:09:46;;;;;;;11.02;3.58;;;;;;;;;;5020231;28;20817;-58
2023/07/08 11:12:18;;;;;;;9.20;3.50;;;;;;;;;;5011207;28;20060;-58
2023/07/08 11:14:50;;;;;;;9.98;3.25;;;;;;;;;;5039048;28;20047;-58
2023/07/08 11:17:22;;;;;;;10.25;3.55;;;;;;;;;;5020823;28;20275;-58
2023/07/08 11:19:55;;;;;;;10.02;2.97;;;;;;;;;;5029113;28;20045;-58
2023/07/08 11:22:23;;;;;;;8.13;2.85;;;;;;;;;;5027826;28;20116;-58
2023/07/08 11:24:52;;;;;;;11.73;3.77;;;;;;;;;;5026063;28;20055;-57
2023/07/08 11:27:26;;;;;;;7.47;3.00;;;;;;;;;;5012164;28;20324;-58
2023/07/08 11:29:57;;;;;;;10.25;3.30;;;;;;;;;;5030590;28;20098;-60
2023/07/08 11:32:27;;;;;;;9.73;3.28;;;;;;;;;;5014454;28;20059;-60
2023/07/08 11:34:55;;;;;;;7.72;3.13;;;;;;;;;;5031652;28;20498;-60
2023/07/08 11:37:24;;;;;;;7.67;3.33;;;;;;;;;;4666396;28;10000616;-60
2023/07/08 11:39:55;;;;;;;8.55;3.13;;;;;;;;;;5005163;28;20570;-58
2023/07/08 11:42:30;;;;;;;8.27;3.50;;;;;;;;;;5031787;28;20044;-58
2023/07/08 11:44:59;;;;;;;7.72;2.80;;;;;;;;;;5020683;28;20415;-59
2023/07/08 11:47:33;;;;;;;9.75;3.42;;;;;;;;;;5020187;28;20486;-59
2023/07/08 11:50:02;;;;;;;9.10;3.27;;;;;;;;;;5039675;28;20155;-58
2023/07/08 11:52:31;;;;;;;8.65;3.22;;;;;;;;;;5037782;28;20048;-59
2023/07/08 11:55:02;;;;;;;9.25;3.42;;;;;;;;;;5036238;28;20036;-59
2023/07/08 11:57:38;;;;;;;9.52;3.47;;;;;;;;;;5021007;28;20491;-59
2023/07/08 12:00:20;;;;;;;11.18;3.30;;;;;;;;;;5046054;28;20519;-60
2023/07/08 12:02:50;;;;;;;7.83;3.07;;;;;;;;;;5029784;28;20767;-60
2023/07/08 12:05:29;;;;;;;10.75;3.92;;;;;;;;;;5021032;28;20429;-60
2023/07/08 12:07:58;;;;;;;8.68;3.70;;;;;;;;;;5032832;28;20040;-60
2023/07/08 12:10:28;;;;;;;9.98;3.28;;;;;;;;;;5018065;28;20372;-60
2023/07/08 12:12:57;;;;;;;8.07;3.13;;;;;;;;;;5031597;28;20060;-60
2023/07/08 12:15:28;;;;;;;8.37;3.47;;;;;;;;;;5016698;28;20037;-59
2023/07/08 12:17:57;;;;;;;9.73;3.72;;;;;;;;;;5030157;28;20410;-60
2023/07/08 12:20:26;;;;;;;9.00;3.75;;;;;;;;;;5028129;28;20061;-60
2023/07/08 12:22:56;;;;;;;8.45;3.83;;;;;;;;;;5034085;28;20037;-60
2023/07/08 12:25:27;;;;;;;8.15;3.35;;;;;;;;;;5025593;28;20044;-60
2023/07/08 12:27:54;;;;;;;8.37;3.17;;;;;;;;;;5037408;28;20033;-60
2023/07/08 12:30:24;;;;;;;11.48;4.40;;;;;;;;;;5019167;28;20076;-60
2023/07/08 12:32:52;;;;;;;9.82;3.47;;;;;;;;;;5032585;28;20046;-60
2023/07/08 12:35:24;;;;;;;9.38;4.00;;;;;;;;;;5024056;28;20032;-60
2023/07/08 12:37:52;;;;;;;11.13;3.67;;;;;;;;;;5034174;28;20063;-60
2023/07/08 12:40:21;;;;;;;9.10;2.93;;;;;;;;;;5027379;28;20041;-59
2023/07/08 12:42:49;;;;;;;7.15;3.03;;;;;;;;;;5029293;28;20159;-59
2023/07/08 12:45:19;;;;;;;7.93;3.75;;;;;;;;;;5031637;28;20802;-60
2023/07/08 12:47:48;;;;;;;12.15;4.10;;;;;;;;;;5040846;28;20377;-61
2023/07/08 12:50:20;;;;;;;9.00;4.07;;;;;;;;;;5034951;28;20079;-60
2023/07/08 12:52:49;;;;;;;9.53;4.30;;;;;;;;;;5014044;28;20043;-60
2023/07/08 12:55:16;;;;;;;9.60;4.30;;;;;;;;;;5031330;28;20037;-60
2023/07/08 12:57:50;;;;;;;9.40;4.10;;;;;;;;;;5030191;28;20043;-60
2023/07/08 13:00:21;;;;;;;14.85;6.38;;;;;;;;;;5024329;28;20499;-60
2023/07/08 13:02:56;;;;;;;20.20;10.55;;;;;;;;;;5022811;28;20150;-60
2023/07/08 13:05:24;;;;;;;14.00;5.20;;;;;;;;;;5019525;28;20095;-60
2023/07/08 13:07:52;;;;;;;11.93;4.28;;;;;;;;;;5025399;28;20218;-59
2023/07/08 13:10:23;;;;;;;11.75;4.40;;;;;;;;;;5036258;28;20068;-60
2023/07/08 13:12:54;;;;;;;9.75;4.03;;;;;;;;;;5033400;28;20036;-59
2023/07/08 13:15:25;;;;;;;15.45;4.25;;;;;;;;;;5018925;28;20487;-60
2023/07/08 13:17:55;;;;;;;11.93;4.53;;;;;;;;;;4686530;28;10000073;-60
2023/07/08 13:20:23;;;;;;;10.67;4.40;;;;;;;;;;5030017;28;20066;-59
2023/07/08 13:22:53;;;;;;;11.30;5.68;;;;;;;;;;5035239;28;20057;-58
2023/07/08 13:25:22;;;;;;;12.52;4.95;;;;;;;;;;5020827;28;20798;-60
2023/07/08 13:27:56;;;;;;;13.05;6.40;;;;;;;;;;5036269;28;20624;-60
2023/07/08 13:30:25;;;;;;;13.10;5.10;;;;;;;;;;5026501;28;20053;-60
2023/07/08 13:32:53;;;;;;;13.87;5.37;;;;;;;;;;5024859;28;20045;-60
2023/07/08 13:35:40;;;;;;;12.98;5.00;;;;;;;;;;5019872;28;20048;-60
2023/07/08 13:38:13;;;;;;;11.95;4.90;;;;;;;;;;5033431;28;20055;-61
2023/07/08 13:40:43;;;;;;;13.25;5.28;;;;;;;;;;5020659;28;20558;-61
2023/07/08 13:43:10;;;;;;;13.32;5.60;;;;;;;;;;5037177;28;20496;-61
2023/07/08 13:45:38;;;;;;;13.40;4.83;;;;;;;;;;5032942;28;20047;-61
2023/07/08 13:48:13;;;;;;;10.35;5.43;;;;;;;;;;5031966;28;20032;-61
2023/07/08 13:50:45;;;;;;;13.88;5.65;;;;;;;;;;5029296;28;20059;-60
2023/07/08 13:53:17;;;;;;;11.15;5.18;;;;;;;;;;5018800;28;20055;-60
2023/07/08 13:55:45;;;;;;;13.52;5.30;;;;;;;;;;5028483;28;20039;-60
2023/07/08 13:58:15;;;;;;;14.13;5.37;;;;;;;;;;5034223;28;20045;-59
2023/07/08 14:00:43;;;;;;;11.18;5.40;;;;;;;;;;5009656;28;20036;-60
2023/07/08 14:03:15;;;;;;;13.30;4.90;;;;;;;;;;5026879;28;20041;-59
2023/07/08 14:05:45;;;;;;;14.85;5.65;;;;;;;;;;5014989;28;20375;-60
2023/07/08 14:08:14;;;;;;;14.82;6.70;;;;;;;;;;5031379;28;20037;-60
2023/07/08 14:10:42;;;;;;;11.37;6.20;;;;;;;;;;5020555;28;20094;-60
2023/07/08 14:13:10;;;;;;;13.68;5.28;;;;;;;;;;5029430;28;20041;-60
2023/07/08 14:15:38;;;;;;;15.55;6.32;;;;;;;;;;5024253;28;20040;-60
2023/07/08 14:18:07;;;;;;;11.48;5.03;;;;;;;;;;5033437;28;20051;-59
2023/07/08 14:20:35;;;;;;;9.93;4.28;;;;;;;;;;5022477;28;20051;-59
2023/07/08 14:23:04;;;;;;;9.43;3.63;;;;;;;;;;5031193;28;20481;-59
2023/07/08 14:25:32;;;;;;;10.50;3.95;;;;;;;;;;5016844;28;20048;-58
2023/07/08 14:27:59;;;;;;;9.50;4.20;;;;;;;;;;5019396;28;20033;-59
2023/07/08 14:30:27;;;;;;;10.73;4.32;;;;;;;;;;5025138;28;20089;-60
2023/07/08 14:32:55;;;;;;;11.95;4.22;;;;;;;;;;5014615;28;20037;-59
2023/07/08 14:35:24;;;;;;;8.87;3.83;;;;;;;;;;5033692;28;20045;-60
2023/07/08 14:37:53;;;;;;;9.43;3.47;;;;;;;;;;5029295;28;20048;-58
2023/07/08 14:40:24;;;;;;;10.65;3.60;;;;;;;;;;5020896;28;20040;-58
2023/07/08 14:42:58;;;;;;;8.60;4.03;;;;;;;;;;5032885;28;20078;-58
2023/07/08 14:45:26;;;;;;;10.23;3.72;;;;;;;;;;4996466;28;20601;-58
2023/07/08 14:47:54;;;;;;;10.53;4.00;;;;;;;;;;5041435;28;20491;-59